sensor_id;sensor_type;location;lat;lon;timestamp;P1;durP1;ratioP1;P2;durP2;ratioP2
19623;SDS011;9959;49.798;9.928;2024-03-06T00:00:13;39.47;;;19.40;;
19623;SDS011;9959;49.798;9.928;2024-03-06T00:02:41;39.15;;;19.73;;
19623;SDS011;9959;49.798;9.928;2024-03-06T00:05:08;41.35;;;20.52;;
19623;SDS011;9959;49.798;9.928;2024-03-06T00:07:35;45.40;;;21.48;;
19623;SDS011;9959;49.798;9.928;2024-03-06T00:10:02;42.88;;;20.83;;
19623;SDS011;9959;49.798;9.928;2024-03-06T00:12:31;46.20;;;20.70;;
19623;SDS011;9959;49.798;9.928;2024-03-06T00:14:58;39.72;;;20.90;;
19623;SDS011;9959;49.798;9.928;2024-03-06T00:17:25;40.03;;;20.40;;
19623;SDS011;9959;49.798;9.928;2024-03-06T00:19:53;42.50;;;20.98;;
19623;SDS011;9959;49.798;9.928;2024-03-06T00:22:20;42.05;;;20.83;;
19623;SDS011;9959;49.798;9.928;2024-03-06T00:24:49;41.00;;;21.10;;
19623;SDS011;9959;49.798;9.928;2024-03-06T00:27:16;40.65;;;21.00;;
19623;SDS011;9959;49.798;9.928;2024-03-06T00:29:43;43.05;;;20.73;;
19623;SDS011;9959;49.798;9.928;2024-03-06T00:32:10;39.13;;;20.98;;
19623;SDS011;9959;49.798;9.928;2024-03-06T00:34:37;44.17;;;21.30;;
19623;SDS011;9959;49.798;9.928;2024-03-06T00:37:04;46.42;;;21.58;;
19623;SDS011;9959;49.798;9.928;2024-03-06T00:39:31;43.35;;;21.05;;
19623;SDS011;9959;49.798;9.928;2024-03-06T00:41:58;40.05;;;19.60;;
19623;SDS011;9959;49.798;9.928;2024-03-06T00:44:24;43.25;;;20.95;;
19623;SDS011;9959;49.798;9.928;2024-03-06T00:46:51;43.60;;;21.02;;
19623;SDS011;9959;49.798;9.928;2024-03-06T00:49:18;44.17;;;20.88;;
19623;SDS011;9959;49.798;9.928;2024-03-06T00:51:45;47.20;;;21.63;;
19623;SDS011;9959;49.798;9.928;2024-03-06T00:54:15;50.83;;;23.63;;
19623;SDS011;9959;49.798;9.928;2024-03-06T00:56:43;49.35;;;21.63;;
19623;SDS011;9959;49.798;9.928;2024-03-06T00:59:10;41.95;;;21.75;;
19623;SDS011;9959;49.798;9.928;2024-03-06T01:01:37;43.72;;;21.45;;
19623;SDS011;9959;49.798;9.928;2024-03-06T01:04:04;49.63;;;22.55;;
19623;SDS011;9959;49.798;9.928;2024-03-06T01:06:31;49.53;;;22.73;;
19623;SDS011;9959;49.798;9.928;2024-03-06T01:08:58;51.55;;;22.38;;
19623;SDS011;9959;49.798;9.928;2024-03-06T01:11:25;46.83;;;22.83;;
19623;SDS011;9959;49.798;9.928;2024-03-06T01:13:56;44.58;;;22.88;;
19623;SDS011;9959;49.798;9.928;2024-03-06T01:16:23;46.22;;;22.80;;
19623;SDS011;9959;49.798;9.928;2024-03-06T01:18:49;45.22;;;23.02;;
19623;SDS011;9959;49.798;9.928;2024-03-06T01:21:16;52.50;;;23.83;;
19623;SDS011;9959;49.798;9.928;2024-03-06T01:23:43;47.58;;;23.30;;
19623;SDS011;9959;49.798;9.928;2024-03-06T01:26:10;53.17;;;23.23;;
19623;SDS011;9959;49.798;9.928;2024-03-06T01:28:38;43.95;;;22.65;;
19623;SDS011;9959;49.798;9.928;2024-03-06T01:31:05;48.17;;;22.23;;
19623;SDS011;9959;49.798;9.928;2024-03-06T01:33:33;50.70;;;23.70;;
19623;SDS011;9959;49.798;9.928;2024-03-06T01:36:00;50.83;;;23.83;;
19623;SDS011;9959;49.798;9.928;2024-03-06T01:38:27;50.55;;;22.73;;
19623;SDS011;9959;49.798;9.928;2024-03-06T01:40:54;51.35;;;22.95;;
19623;SDS011;9959;49.798;9.928;2024-03-06T01:43:24;50.55;;;24.02;;
19623;SDS011;9959;49.798;9.928;2024-03-06T01:45:52;57.30;;;25.02;;
19623;SDS011;9959;49.798;9.928;2024-03-06T01:48:20;51.00;;;23.70;;
19623;SDS011;9959;49.798;9.928;2024-03-06T01:50:49;53.10;;;25.88;;
19623;SDS011;9959;49.798;9.928;2024-03-06T01:53:16;50.97;;;25.35;;
19623;SDS011;9959;49.798;9.928;2024-03-06T01:55:45;49.90;;;22.90;;
19623;SDS011;9959;49.798;9.928;2024-03-06T01:58:12;49.40;;;22.40;;
19623;SDS011;9959;49.798;9.928;2024-03-06T02:00:39;53.40;;;23.20;;
19623;SDS011;9959;49.798;9.928;2024-03-06T02:03:06;45.67;;;22.10;;
19623;SDS011;9959;49.798;9.928;2024-03-06T02:05:33;52.60;;;24.58;;
19623;SDS011;9959;49.798;9.928;2024-03-06T02:08:01;54.85;;;24.08;;
19623;SDS011;9959;49.798;9.928;2024-03-06T02:10:30;50.58;;;24.20;;
19623;SDS011;9959;49.798;9.928;2024-03-06T02:12:57;51.50;;;24.05;;
19623;SDS011;9959;49.798;9.928;2024-03-06T02:15:24;49.75;;;22.98;;
19623;SDS011;9959;49.798;9.928;2024-03-06T02:17:51;56.22;;;24.13;;
19623;SDS011;9959;49.798;9.928;2024-03-06T02:20:21;56.95;;;25.02;;
19623;SDS011;9959;49.798;9.928;2024-03-06T02:22:50;61.03;;;24.90;;
19623;SDS011;9959;49.798;9.928;2024-03-06T02:25:17;57.53;;;24.67;;
19623;SDS011;9959;49.798;9.928;2024-03-06T02:27:45;50.33;;;23.25;;
19623;SDS011;9959;49.798;9.928;2024-03-06T02:30:14;55.47;;;23.08;;
19623;SDS011;9959;49.798;9.928;2024-03-06T02:32:45;55.33;;;25.02;;
19623;SDS011;9959;49.798;9.928;2024-03-06T02:35:12;59.53;;;26.23;;
19623;SDS011;9959;49.798;9.928;2024-03-06T02:37:41;58.85;;;25.05;;
19623;SDS011;9959;49.798;9.928;2024-03-06T02:40:10;60.47;;;26.60;;
19623;SDS011;9959;49.798;9.928;2024-03-06T02:42:38;54.60;;;25.20;;
19623;SDS011;9959;49.798;9.928;2024-03-06T02:45:06;63.25;;;27.15;;
19623;SDS011;9959;49.798;9.928;2024-03-06T02:47:34;59.30;;;26.13;;
19623;SDS011;9959;49.798;9.928;2024-03-06T02:50:01;62.85;;;27.52;;
19623;SDS011;9959;49.798;9.928;2024-03-06T02:52:28;58.03;;;25.17;;
19623;SDS011;9959;49.798;9.928;2024-03-06T02:54:55;58.35;;;24.65;;
19623;SDS011;9959;49.798;9.928;2024-03-06T02:57:23;60.95;;;26.45;;
19623;SDS011;9959;49.798;9.928;2024-03-06T02:59:49;60.35;;;26.80;;
19623;SDS011;9959;49.798;9.928;2024-03-06T03:02:16;69.00;;;26.58;;
19623;SDS011;9959;49.798;9.928;2024-03-06T03:04:43;57.47;;;25.10;;
19623;SDS011;9959;49.798;9.928;2024-03-06T03:07:10;56.97;;;25.13;;
19623;SDS011;9959;49.798;9.928;2024-03-06T03:09:37;58.92;;;26.25;;
19623;SDS011;9959;49.798;9.928;2024-03-06T03:12:05;63.35;;;26.45;;
19623;SDS011;9959;49.798;9.928;2024-03-06T03:14:32;62.22;;;26.15;;
19623;SDS011;9959;49.798;9.928;2024-03-06T03:17:02;60.67;;;26.20;;
19623;SDS011;9959;49.798;9.928;2024-03-06T03:19:29;60.45;;;26.13;;
19623;SDS011;9959;49.798;9.928;2024-03-06T03:21:56;64.88;;;26.27;;
19623;SDS011;9959;49.798;9.928;2024-03-06T03:24:23;63.20;;;26.50;;
19623;SDS011;9959;49.798;9.928;2024-03-06T03:26:52;63.72;;;26.30;;
19623;SDS011;9959;49.798;9.928;2024-03-06T03:29:20;70.85;;;27.55;;
19623;SDS011;9959;49.798;9.928;2024-03-06T03:31:47;66.40;;;26.33;;
19623;SDS011;9959;49.798;9.928;2024-03-06T03:34:14;64.22;;;25.65;;
19623;SDS011;9959;49.798;9.928;2024-03-06T03:36:44;65.43;;;27.27;;
19623;SDS011;9959;49.798;9.928;2024-03-06T03:39:11;60.58;;;26.58;;
19623;SDS011;9959;49.798;9.928;2024-03-06T03:41:47;67.32;;;27.50;;
19623;SDS011;9959;49.798;9.928;2024-03-06T03:44:16;62.35;;;26.35;;
19623;SDS011;9959;49.798;9.928;2024-03-06T03:46:45;60.40;;;26.20;;
19623;SDS011;9959;49.798;9.928;2024-03-06T03:49:12;57.65;;;25.27;;
19623;SDS011;9959;49.798;9.928;2024-03-06T03:51:39;59.20;;;25.90;;
19623;SDS011;9959;49.798;9.928;2024-03-06T03:54:06;66.63;;;27.08;;
19623;SDS011;9959;49.798;9.928;2024-03-06T03:56:34;66.97;;;26.02;;
19623;SDS011;9959;49.798;9.928;2024-03-06T03:59:01;59.90;;;26.75;;
19623;SDS011;9959;49.798;9.928;2024-03-06T04:01:29;59.30;;;26.02;;
19623;SDS011;9959;49.798;9.928;2024-03-06T04:03:56;67.10;;;26.50;;
19623;SDS011;9959;49.798;9.928;2024-03-06T04:06:23;60.72;;;26.33;;
19623;SDS011;9959;49.798;9.928;2024-03-06T04:08:50;65.53;;;27.17;;
19623;SDS011;9959;49.798;9.928;2024-03-06T04:11:17;66.35;;;26.55;;
19623;SDS011;9959;49.798;9.928;2024-03-06T04:13:45;69.50;;;27.80;;
19623;SDS011;9959;49.798;9.928;2024-03-06T04:16:16;64.90;;;27.10;;
19623;SDS011;9959;49.798;9.928;2024-03-06T04:18:44;61.38;;;26.20;;
19623;SDS011;9959;49.798;9.928;2024-03-06T04:21:14;66.38;;;27.45;;
19623;SDS011;9959;49.798;9.928;2024-03-06T04:23:42;73.65;;;29.55;;
19623;SDS011;9959;49.798;9.928;2024-03-06T04:26:10;65.03;;;29.15;;
19623;SDS011;9959;49.798;9.928;2024-03-06T04:28:38;69.07;;;29.13;;
19623;SDS011;9959;49.798;9.928;2024-03-06T04:31:05;65.55;;;28.10;;
19623;SDS011;9959;49.798;9.928;2024-03-06T04:33:32;70.30;;;28.88;;
19623;SDS011;9959;49.798;9.928;2024-03-06T04:36:03;69.55;;;30.27;;
19623;SDS011;9959;49.798;9.928;2024-03-06T04:38:33;68.65;;;28.35;;
19623;SDS011;9959;49.798;9.928;2024-03-06T04:41:00;70.00;;;30.15;;
19623;SDS011;9959;49.798;9.928;2024-03-06T04:43:27;66.93;;;28.63;;
19623;SDS011;9959;49.798;9.928;2024-03-06T04:45:54;69.13;;;27.27;;
19623;SDS011;9959;49.798;9.928;2024-03-06T04:48:21;72.45;;;30.52;;
19623;SDS011;9959;49.798;9.928;2024-03-06T04:50:48;79.43;;;28.42;;
19623;SDS011;9959;49.798;9.928;2024-03-06T04:53:15;73.53;;;28.40;;
19623;SDS011;9959;49.798;9.928;2024-03-06T04:55:43;66.55;;;28.02;;
19623;SDS011;9959;49.798;9.928;2024-03-06T04:58:10;66.80;;;27.67;;
19623;SDS011;9959;49.798;9.928;2024-03-06T05:00:37;74.32;;;28.17;;
19623;SDS011;9959;49.798;9.928;2024-03-06T05:03:04;64.30;;;28.48;;
19623;SDS011;9959;49.798;9.928;2024-03-06T05:05:45;64.53;;;26.88;;
19623;SDS011;9959;49.798;9.928;2024-03-06T05:08:26;58.10;;;25.40;;
19623;SDS011;9959;49.798;9.928;2024-03-06T05:11:06;64.20;;;26.85;;
19623;SDS011;9959;49.798;9.928;2024-03-06T05:13:48;64.95;;;26.73;;
19623;SDS011;9959;49.798;9.928;2024-03-06T05:16:29;59.47;;;25.38;;
19623;SDS011;9959;49.798;9.928;2024-03-06T05:19:10;68.65;;;27.90;;
19623;SDS011;9959;49.798;9.928;2024-03-06T05:21:51;68.88;;;28.15;;
19623;SDS011;9959;49.798;9.928;2024-03-06T05:24:31;64.90;;;26.88;;
19623;SDS011;9959;49.798;9.928;2024-03-06T05:27:12;64.78;;;27.35;;
19623;SDS011;9959;49.798;9.928;2024-03-06T05:29:57;64.95;;;27.55;;
19623;SDS011;9959;49.798;9.928;2024-03-06T05:32:37;65.38;;;27.35;;
19623;SDS011;9959;49.798;9.928;2024-03-06T05:35:18;69.90;;;28.65;;
19623;SDS011;9959;49.798;9.928;2024-03-06T05:37:59;72.65;;;28.23;;
19623;SDS011;9959;49.798;9.928;2024-03-06T05:40:39;67.45;;;29.23;;
19623;SDS011;9959;49.798;9.928;2024-03-06T05:43:21;67.53;;;27.75;;
19623;SDS011;9959;49.798;9.928;2024-03-06T05:46:02;66.47;;;28.20;;
19623;SDS011;9959;49.798;9.928;2024-03-06T05:48:43;64.30;;;27.75;;
19623;SDS011;9959;49.798;9.928;2024-03-06T05:51:24;68.13;;;28.85;;
19623;SDS011;9959;49.798;9.928;2024-03-06T05:54:04;71.28;;;27.23;;
19623;SDS011;9959;49.798;9.928;2024-03-06T05:56:48;73.28;;;28.55;;
19623;SDS011;9959;49.798;9.928;2024-03-06T05:59:30;63.35;;;27.35;;
19623;SDS011;9959;49.798;9.928;2024-03-06T06:01:57;72.28;;;26.98;;
19623;SDS011;9959;49.798;9.928;2024-03-06T06:04:24;65.65;;;26.70;;
19623;SDS011;9959;49.798;9.928;2024-03-06T06:06:52;66.70;;;25.85;;
19623;SDS011;9959;49.798;9.928;2024-03-06T06:09:19;58.60;;;25.95;;
19623;SDS011;9959;49.798;9.928;2024-03-06T06:11:46;66.70;;;27.50;;
19623;SDS011;9959;49.798;9.928;2024-03-06T06:14:14;61.70;;;26.13;;
19623;SDS011;9959;49.798;9.928;2024-03-06T06:16:41;63.00;;;25.38;;
19623;SDS011;9959;49.798;9.928;2024-03-06T06:19:09;57.13;;;25.02;;
19623;SDS011;9959;49.798;9.928;2024-03-06T06:21:36;57.90;;;25.70;;
19623;SDS011;9959;49.798;9.928;2024-03-06T06:24:03;60.95;;;26.30;;
19623;SDS011;9959;49.798;9.928;2024-03-06T06:26:31;59.13;;;25.55;;
19623;SDS011;9959;49.798;9.928;2024-03-06T06:28:59;64.65;;;25.50;;
19623;SDS011;9959;49.798;9.928;2024-03-06T06:31:26;62.70;;;27.25;;
19623;SDS011;9959;49.798;9.928;2024-03-06T06:33:53;58.78;;;25.38;;
19623;SDS011;9959;49.798;9.928;2024-03-06T06:36:20;61.53;;;24.08;;
19623;SDS011;9959;49.798;9.928;2024-03-06T06:38:47;58.72;;;25.15;;
19623;SDS011;9959;49.798;9.928;2024-03-06T06:41:15;61.40;;;26.50;;
19623;SDS011;9959;49.798;9.928;2024-03-06T06:43:43;56.50;;;26.00;;
19623;SDS011;9959;49.798;9.928;2024-03-06T06:46:10;55.55;;;26.52;;
19623;SDS011;9959;49.798;9.928;2024-03-06T06:48:37;59.17;;;24.13;;
19623;SDS011;9959;49.798;9.928;2024-03-06T06:51:04;65.95;;;24.83;;
19623;SDS011;9959;49.798;9.928;2024-03-06T06:53:31;60.50;;;25.88;;
19623;SDS011;9959;49.798;9.928;2024-03-06T06:55:58;52.75;;;23.48;;
19623;SDS011;9959;49.798;9.928;2024-03-06T06:58:26;55.63;;;23.45;;
19623;SDS011;9959;49.798;9.928;2024-03-06T07:00:53;50.00;;;23.63;;
19623;SDS011;9959;49.798;9.928;2024-03-06T07:03:23;61.63;;;23.60;;
19623;SDS011;9959;49.798;9.928;2024-03-06T07:06:01;50.65;;;23.23;;
19623;SDS011;9959;49.798;9.928;2024-03-06T07:08:31;53.08;;;23.67;;
19623;SDS011;9959;49.798;9.928;2024-03-06T07:11:08;46.72;;;21.85;;
19623;SDS011;9959;49.798;9.928;2024-03-06T07:13:43;47.15;;;21.55;;
19623;SDS011;9959;49.798;9.928;2024-03-06T07:16:12;48.67;;;21.45;;
19623;SDS011;9959;49.798;9.928;2024-03-06T07:18:49;45.50;;;21.60;;
19623;SDS011;9959;49.798;9.928;2024-03-06T07:21:18;44.83;;;21.85;;
19623;SDS011;9959;49.798;9.928;2024-03-06T07:23:46;45.03;;;21.05;;
19623;SDS011;9959;49.798;9.928;2024-03-06T07:26:14;45.05;;;20.55;;
19623;SDS011;9959;49.798;9.928;2024-03-06T07:28:43;40.22;;;20.02;;
19623;SDS011;9959;49.798;9.928;2024-03-06T07:31:10;48.08;;;20.80;;
19623;SDS011;9959;49.798;9.928;2024-03-06T07:33:40;49.92;;;22.50;;
19623;SDS011;9959;49.798;9.928;2024-03-06T07:36:13;46.28;;;19.85;;
19623;SDS011;9959;49.798;9.928;2024-03-06T07:38:40;45.13;;;21.27;;
19623;SDS011;9959;49.798;9.928;2024-03-06T07:41:39;85.72;;;24.88;;
19623;SDS011;9959;49.798;9.928;2024-03-06T07:44:52;45.38;;;20.63;;
19623;SDS011;9959;49.798;9.928;2024-03-06T07:47:47;49.28;;;20.38;;
19623;SDS011;9959;49.798;9.928;2024-03-06T07:51:18;43.15;;;19.15;;
19623;SDS011;9959;49.798;9.928;2024-03-06T07:54:00;42.67;;;20.15;;
19623;SDS011;9959;49.798;9.928;2024-03-06T07:57:01;41.63;;;19.30;;
19623;SDS011;9959;49.798;9.928;2024-03-06T08:06:54;44.40;;;20.10;;
19623;SDS011;9959;49.798;9.928;2024-03-06T08:13:33;41.05;;;19.48;;
19623;SDS011;9959;49.798;9.928;2024-03-06T08:16:47;42.33;;;19.92;;
19623;SDS011;9959;49.798;9.928;2024-03-06T08:19:53;42.47;;;19.30;;
19623;SDS011;9959;49.798;9.928;2024-03-06T08:22:21;41.42;;;18.73;;
19623;SDS011;9959;49.798;9.928;2024-03-06T08:24:49;40.00;;;18.80;;
19623;SDS011;9959;49.798;9.928;2024-03-06T08:27:16;38.85;;;18.95;;
19623;SDS011;9959;49.798;9.928;2024-03-06T08:29:43;46.40;;;19.38;;
19623;SDS011;9959;49.798;9.928;2024-03-06T08:32:10;38.05;;;18.00;;
19623;SDS011;9959;49.798;9.928;2024-03-06T08:34:37;42.55;;;18.50;;
19623;SDS011;9959;49.798;9.928;2024-03-06T08:37:04;35.33;;;17.42;;
19623;SDS011;9959;49.798;9.928;2024-03-06T08:39:32;42.10;;;18.25;;
19623;SDS011;9959;49.798;9.928;2024-03-06T08:41:59;38.28;;;17.98;;
19623;SDS011;9959;49.798;9.928;2024-03-06T08:44:27;51.00;;;19.38;;
19623;SDS011;9959;49.798;9.928;2024-03-06T08:46:54;47.90;;;19.60;;
19623;SDS011;9959;49.798;9.928;2024-03-06T08:49:21;40.15;;;19.27;;
19623;SDS011;9959;49.798;9.928;2024-03-06T08:51:48;43.00;;;19.63;;
19623;SDS011;9959;49.798;9.928;2024-03-06T08:54:15;42.47;;;19.42;;
19623;SDS011;9959;49.798;9.928;2024-03-06T08:56:45;43.20;;;19.50;;
19623;SDS011;9959;49.798;9.928;2024-03-06T08:59:12;44.50;;;20.35;;
19623;SDS011;9959;49.798;9.928;2024-03-06T09:01:39;51.40;;;20.60;;
19623;SDS011;9959;49.798;9.928;2024-03-06T09:04:06;51.75;;;20.17;;
19623;SDS011;9959;49.798;9.928;2024-03-06T09:06:34;47.72;;;20.48;;
19623;SDS011;9959;49.798;9.928;2024-03-06T09:09:01;47.42;;;20.83;;
19623;SDS011;9959;49.798;9.928;2024-03-06T09:11:28;52.55;;;21.88;;
19623;SDS011;9959;49.798;9.928;2024-03-06T09:13:55;45.88;;;21.67;;
19623;SDS011;9959;49.798;9.928;2024-03-06T09:16:22;45.55;;;20.25;;
19623;SDS011;9959;49.798;9.928;2024-03-06T09:18:50;53.03;;;21.52;;
19623;SDS011;9959;49.798;9.928;2024-03-06T09:21:18;46.42;;;20.85;;
19623;SDS011;9959;49.798;9.928;2024-03-06T09:23:46;60.70;;;21.67;;
19623;SDS011;9959;49.798;9.928;2024-03-06T09:26:18;47.38;;;19.85;;
19623;SDS011;9959;49.798;9.928;2024-03-06T09:28:45;45.83;;;20.42;;
19623;SDS011;9959;49.798;9.928;2024-03-06T09:31:12;45.38;;;20.45;;
19623;SDS011;9959;49.798;9.928;2024-03-06T09:33:40;47.05;;;19.00;;
19623;SDS011;9959;49.798;9.928;2024-03-06T09:36:10;43.35;;;19.77;;
19623;SDS011;9959;49.798;9.928;2024-03-06T09:38:37;45.85;;;19.60;;
19623;SDS011;9959;49.798;9.928;2024-03-06T09:41:07;42.95;;;19.27;;
19623;SDS011;9959;49.798;9.928;2024-03-06T09:43:35;41.78;;;18.58;;
19623;SDS011;9959;49.798;9.928;2024-03-06T09:46:02;42.30;;;19.48;;
19623;SDS011;9959;49.798;9.928;2024-03-06T09:48:30;44.47;;;18.27;;
19623;SDS011;9959;49.798;9.928;2024-03-06T09:51:00;46.90;;;19.88;;
19623;SDS011;9959;49.798;9.928;2024-03-06T09:53:31;43.85;;;19.17;;
19623;SDS011;9959;49.798;9.928;2024-03-06T09:55:58;42.00;;;17.90;;
19623;SDS011;9959;49.798;9.928;2024-03-06T09:58:26;42.63;;;18.67;;
19623;SDS011;9959;49.798;9.928;2024-03-06T10:00:53;43.35;;;19.10;;
19623;SDS011;9959;49.798;9.928;2024-03-06T10:03:25;46.60;;;18.92;;
19623;SDS011;9959;49.798;9.928;2024-03-06T10:05:52;40.72;;;18.40;;
19623;SDS011;9959;49.798;9.928;2024-03-06T10:08:21;45.40;;;19.25;;
19623;SDS011;9959;49.798;9.928;2024-03-06T10:10:51;39.42;;;18.20;;
19623;SDS011;9959;49.798;9.928;2024-03-06T10:13:25;51.28;;;20.48;;
19623;SDS011;9959;49.798;9.928;2024-03-06T10:15:59;44.78;;;18.80;;
19623;SDS011;9959;49.798;9.928;2024-03-06T10:18:28;52.22;;;20.63;;
19623;SDS011;9959;49.798;9.928;2024-03-06T10:20:58;41.60;;;19.25;;
19623;SDS011;9959;49.798;9.928;2024-03-06T10:23:25;45.60;;;19.85;;
19623;SDS011;9959;49.798;9.928;2024-03-06T10:25:55;46.15;;;20.33;;
19623;SDS011;9959;49.798;9.928;2024-03-06T10:28:23;68.38;;;20.52;;
19623;SDS011;9959;49.798;9.928;2024-03-06T10:30:51;43.13;;;19.85;;
19623;SDS011;9959;49.798;9.928;2024-03-06T10:33:18;40.55;;;18.67;;
19623;SDS011;9959;49.798;9.928;2024-03-06T10:35:46;49.55;;;20.98;;
19623;SDS011;9959;49.798;9.928;2024-03-06T10:38:19;45.22;;;19.50;;
19623;SDS011;9959;49.798;9.928;2024-03-06T10:40:47;42.47;;;18.55;;
19623;SDS011;9959;49.798;9.928;2024-03-06T10:43:17;42.05;;;18.75;;
19623;SDS011;9959;49.798;9.928;2024-03-06T10:45:49;45.33;;;18.77;;
19623;SDS011;9959;49.798;9.928;2024-03-06T10:48:18;40.70;;;18.75;;
19623;SDS011;9959;49.798;9.928;2024-03-06T10:50:47;36.63;;;17.75;;
19623;SDS011;9959;49.798;9.928;2024-03-06T10:53:16;33.85;;;17.35;;
19623;SDS011;9959;49.798;9.928;2024-03-06T10:55:49;39.40;;;18.25;;
19623;SDS011;9959;49.798;9.928;2024-03-06T10:58:17;36.28;;;17.15;;
19623;SDS011;9959;49.798;9.928;2024-03-06T11:00:46;35.03;;;17.02;;
19623;SDS011;9959;49.798;9.928;2024-03-06T11:03:15;39.03;;;18.45;;
19623;SDS011;9959;49.798;9.928;2024-03-06T11:05:43;35.60;;;16.67;;
19623;SDS011;9959;49.798;9.928;2024-03-06T11:08:15;36.33;;;16.60;;
19623;SDS011;9959;49.798;9.928;2024-03-06T11:10:47;35.58;;;16.77;;
19623;SDS011;9959;49.798;9.928;2024-03-06T11:15:58;32.97;;;16.05;;
19623;SDS011;9959;49.798;9.928;2024-03-06T11:23:32;33.72;;;15.90;;
19623;SDS011;9959;49.798;9.928;2024-03-06T11:26:03;32.72;;;16.58;;
19623;SDS011;9959;49.798;9.928;2024-03-06T11:28:34;36.03;;;16.73;;
19623;SDS011;9959;49.798;9.928;2024-03-06T11:31:06;32.38;;;16.08;;
19623;SDS011;9959;49.798;9.928;2024-03-06T11:33:46;34.20;;;16.88;;
19623;SDS011;9959;49.798;9.928;2024-03-06T11:39:19;38.47;;;17.33;;
19623;SDS011;9959;49.798;9.928;2024-03-06T11:44:18;36.63;;;17.80;;
19623;SDS011;9959;49.798;9.928;2024-03-06T11:46:57;37.70;;;17.23;;
19623;SDS011;9959;49.798;9.928;2024-03-06T11:49:27;33.85;;;17.23;;
19623;SDS011;9959;49.798;9.928;2024-03-06T11:51:56;40.67;;;18.73;;
19623;SDS011;9959;49.798;9.928;2024-03-06T11:54:24;33.38;;;16.75;;
19623;SDS011;9959;49.798;9.928;2024-03-06T11:56:54;33.05;;;17.02;;
19623;SDS011;9959;49.798;9.928;2024-03-06T11:59:26;43.13;;;17.70;;
19623;SDS011;9959;49.798;9.928;2024-03-06T12:01:55;35.65;;;17.70;;
19623;SDS011;9959;49.798;9.928;2024-03-06T12:04:23;35.42;;;17.38;;
19623;SDS011;9959;49.798;9.928;2024-03-06T12:06:51;38.15;;;17.98;;
19623;SDS011;9959;49.798;9.928;2024-03-06T12:09:18;34.80;;;17.48;;
19623;SDS011;9959;49.798;9.928;2024-03-06T12:11:45;30.10;;;16.05;;
19623;SDS011;9959;49.798;9.928;2024-03-06T12:14:17;35.08;;;17.80;;
19623;SDS011;9959;49.798;9.928;2024-03-06T12:16:54;37.55;;;16.77;;
19623;SDS011;9959;49.798;9.928;2024-03-06T12:19:22;33.90;;;16.58;;
19623;SDS011;9959;49.798;9.928;2024-03-06T12:21:52;39.53;;;16.02;;
19623;SDS011;9959;49.798;9.928;2024-03-06T12:24:20;36.90;;;16.88;;
19623;SDS011;9959;49.798;9.928;2024-03-06T12:26:57;33.03;;;17.23;;
19623;SDS011;9959;49.798;9.928;2024-03-06T12:29:27;35.20;;;16.65;;
19623;SDS011;9959;49.798;9.928;2024-03-06T12:31:57;29.90;;;15.55;;
19623;SDS011;9959;49.798;9.928;2024-03-06T12:34:28;36.60;;;16.83;;
19623;SDS011;9959;49.798;9.928;2024-03-06T12:37:07;33.97;;;16.73;;
19623;SDS011;9959;49.798;9.928;2024-03-06T12:39:35;31.00;;;16.23;;
19623;SDS011;9959;49.798;9.928;2024-03-06T12:42:07;31.50;;;16.00;;
19623;SDS011;9959;49.798;9.928;2024-03-06T12:44:34;33.55;;;16.52;;
19623;SDS011;9959;49.798;9.928;2024-03-06T12:47:01;33.28;;;16.38;;
19623;SDS011;9959;49.798;9.928;2024-03-06T12:49:28;34.22;;;16.98;;
19623;SDS011;9959;49.798;9.928;2024-03-06T12:51:55;32.50;;;17.13;;
19623;SDS011;9959;49.798;9.928;2024-03-06T12:54:22;34.25;;;16.45;;
19623;SDS011;9959;49.798;9.928;2024-03-06T12:56:50;33.90;;;16.30;;
19623;SDS011;9959;49.798;9.928;2024-03-06T12:59:17;32.70;;;16.13;;
19623;SDS011;9959;49.798;9.928;2024-03-06T13:01:45;32.90;;;16.00;;
19623;SDS011;9959;49.798;9.928;2024-03-06T13:04:14;33.35;;;16.20;;
19623;SDS011;9959;49.798;9.928;2024-03-06T13:06:41;32.05;;;16.52;;
19623;SDS011;9959;49.798;9.928;2024-03-06T13:09:08;30.65;;;16.42;;
19623;SDS011;9959;49.798;9.928;2024-03-06T13:11:35;31.50;;;16.52;;
19623;SDS011;9959;49.798;9.928;2024-03-06T13:14:02;34.42;;;16.10;;
19623;SDS011;9959;49.798;9.928;2024-03-06T13:16:29;31.30;;;14.80;;
19623;SDS011;9959;49.798;9.928;2024-03-06T13:18:56;36.45;;;15.95;;
19623;SDS011;9959;49.798;9.928;2024-03-06T13:21:23;37.13;;;17.58;;
19623;SDS011;9959;49.798;9.928;2024-03-06T13:23:51;33.35;;;16.23;;
19623;SDS011;9959;49.798;9.928;2024-03-06T13:26:18;33.45;;;16.15;;
19623;SDS011;9959;49.798;9.928;2024-03-06T13:28:45;29.23;;;14.45;;
19623;SDS011;9959;49.798;9.928;2024-03-06T13:31:12;31.25;;;15.27;;
19623;SDS011;9959;49.798;9.928;2024-03-06T13:33:40;29.20;;;15.45;;
19623;SDS011;9959;49.798;9.928;2024-03-06T13:36:07;33.25;;;16.20;;
19623;SDS011;9959;49.798;9.928;2024-03-06T13:38:34;32.13;;;15.95;;
19623;SDS011;9959;49.798;9.928;2024-03-06T13:41:02;31.50;;;16.08;;
19623;SDS011;9959;49.798;9.928;2024-03-06T13:43:29;30.73;;;17.05;;
19623;SDS011;9959;49.798;9.928;2024-03-06T13:45:56;32.20;;;16.48;;
19623;SDS011;9959;49.798;9.928;2024-03-06T13:48:23;37.92;;;17.27;;
19623;SDS011;9959;49.798;9.928;2024-03-06T13:50:50;35.60;;;15.95;;
19623;SDS011;9959;49.798;9.928;2024-03-06T13:53:18;33.13;;;16.33;;
19623;SDS011;9959;49.798;9.928;2024-03-06T13:55:45;31.23;;;15.73;;
19623;SDS011;9959;49.798;9.928;2024-03-06T13:58:12;32.70;;;16.25;;
19623;SDS011;9959;49.798;9.928;2024-03-06T14:00:39;33.42;;;16.15;;
19623;SDS011;9959;49.798;9.928;2024-03-06T14:03:06;33.22;;;16.23;;
19623;SDS011;9959;49.798;9.928;2024-03-06T14:05:33;32.50;;;16.38;;
19623;SDS011;9959;49.798;9.928;2024-03-06T14:08:00;32.78;;;16.85;;
19623;SDS011;9959;49.798;9.928;2024-03-06T14:10:27;31.60;;;16.55;;
19623;SDS011;9959;49.798;9.928;2024-03-06T14:12:54;31.65;;;15.80;;
19623;SDS011;9959;49.798;9.928;2024-03-06T14:15:22;33.22;;;16.42;;
19623;SDS011;9959;49.798;9.928;2024-03-06T14:17:50;33.58;;;16.00;;
19623;SDS011;9959;49.798;9.928;2024-03-06T14:20:17;29.80;;;15.95;;
19623;SDS011;9959;49.798;9.928;2024-03-06T14:22:44;32.10;;;15.85;;
19623;SDS011;9959;49.798;9.928;2024-03-06T14:25:11;29.65;;;15.35;;
19623;SDS011;9959;49.798;9.928;2024-03-06T14:27:39;28.60;;;15.88;;
19623;SDS011;9959;49.798;9.928;2024-03-06T14:30:06;26.48;;;14.55;;
19623;SDS011;9959;49.798;9.928;2024-03-06T14:32:34;27.48;;;14.27;;
19623;SDS011;9959;49.798;9.928;2024-03-06T14:35:02;27.63;;;15.63;;
19623;SDS011;9959;49.798;9.928;2024-03-06T14:37:33;27.33;;;14.98;;
19623;SDS011;9959;49.798;9.928;2024-03-06T14:40:00;26.52;;;15.07;;
19623;SDS011;9959;49.798;9.928;2024-03-06T14:42:32;26.33;;;15.15;;
19623;SDS011;9959;49.798;9.928;2024-03-06T14:44:59;26.02;;;15.38;;
19623;SDS011;9959;49.798;9.928;2024-03-06T14:47:26;26.95;;;14.73;;
19623;SDS011;9959;49.798;9.928;2024-03-06T14:49:54;29.52;;;15.20;;
19623;SDS011;9959;49.798;9.928;2024-03-06T14:52:21;27.65;;;15.25;;
19623;SDS011;9959;49.798;9.928;2024-03-06T14:54:48;28.33;;;15.55;;
19623;SDS011;9959;49.798;9.928;2024-03-06T14:57:15;26.60;;;14.65;;
19623;SDS011;9959;49.798;9.928;2024-03-06T14:59:42;27.52;;;15.10;;
19623;SDS011;9959;49.798;9.928;2024-03-06T15:02:10;27.40;;;15.38;;
19623;SDS011;9959;49.798;9.928;2024-03-06T15:04:37;27.90;;;15.27;;
19623;SDS011;9959;49.798;9.928;2024-03-06T15:07:04;29.17;;;15.38;;
19623;SDS011;9959;49.798;9.928;2024-03-06T15:09:32;32.13;;;15.75;;
19623;SDS011;9959;49.798;9.928;2024-03-06T15:11:59;29.02;;;15.50;;